City Time Now High Low DP Feels RH% Vsby Pressure Ceiling Direction Speed Gust Precip
Algona
VFR
5:15PM 86° 88° 66° 68° 89° 55
%
10
mi
1014.9
mb
None SSW 10
mph
18
mph
0.00"
KAXA 262215Z AUTO 20009G16KT 10SM CLR 30/20 A2997 RMK A01
Ankeny
VFR
5:15PM 88° 90° 61° 63° 88° 43
%
10
mi
1016.9
mb
None S 7
mph
15
mph
0.00"
KIKV 262215Z AUTO 17006G13KT 10SM CLR 31/17 A3003 RMK AO2
Atlantic
VFR
5:15PM 86° 88° 57° 68° 89° 55
%
9
mi
1016.3
mb
None VRB 7
mph
0.00"
KAIO 262215Z AUTO VRB06KT 9SM CLR 30/20 A3001 RMK AO2
Audubon
VFR
5:15PM 88° 88° 55° 64° 89° 46
%
10
mi
1017.3
mb
None SSE 7
mph
0.00"
KADU 262215Z AUTO 16006KT 10SM CLR 31/18 A3004 RMK AO2
Ames
VFR
4:53PM 88° 89° 60° 62° 88° 42
%
10
mi
1016.6
mb
None SSW 7
mph
Trace
KAMW 262153Z AUTO 20006KT 10SM CLR 31/17 A3002 RMK AO2 SLP158 T03110167
Boone
VFR
5:15PM 88° 90° 64° 63° 88° 43
%
10
mi
1017.3
mb
None SSW 7
mph
0.00"
KBNW 262215Z AUTO 21006KT 10SM CLR 31/17 A3004 RMK AO2
Burlington
VFR
4:53PM 88° 89° 62° 61° 88° 40
%
10
mi
1017.3
mb
None E 5
mph
0.00"
KBRL 262153Z AUTO 10004KT 10SM CLR 31/16 A3004 RMK AO2 SLP166 T03110161
Carroll
VFR
5:15PM 86° 88° 63° 72° 92° 62
%
10
mi
1016.3
mb
None SSW 8
mph
0.00"
KCIN 262215Z AUTO 20007KT 10SM CLR 30/22 A3001 RMK AO2
Cedar Rapids
VFR
4:52PM 87° 89° 58° 63° 88° 45
%
10
mi
1017.3
mb
None SW 6
mph
0.00"
KCID 262152Z 23005KT 10SM CLR 31/17 A3004 RMK AO2 SLP167 T03060172
Chariton
VFR
5:15PM 88° 88° 63° 63° 88° 43
%
9
mi
1016.9
mb
None SE 6
mph
0.00"
KCNC 262215Z AUTO 13005KT 9SM CLR 31/17 A3003 RMK AO2
Charles City
VFR
5:15PM 86° 88° 63° 63° 87° 46
%
10
mi
1016.3
mb
None SW 9
mph
0.00"
KCCY 262215Z AUTO 22008KT 10SM CLR 30/17 A3001 RMK AO2
Clarinda
VFR
5:15PM 88° 90° 59° 63° 88° 43
%
10
mi
None SE 6
mph
0.00"
KICL 262215Z AUTO 13005KT 10SM CLR 31/17 RMK AO2
Clarion
VFR
5:15PM 86° 88° 66° 70° 91° 59
%
10
mi
1015.9
mb
None SSW 9
mph
0.00"
KCAV 262215Z AUTO 20008KT 10SM CLR 30/21 A3000 RMK A01
Clinton
VFR
4:56PM 87° 88° 58° 69° 91° 55
%
10
mi
1017.6
mb
None W 7
mph
0.00"
KCWI 262156Z AUTO 28006KT 10SM CLR 31/21 A3005 RMK AO2 SLP175 T03060206
Council Bluffs
VFR
5:15PM 86° 88° 66° 64° 87° 49
%
10
mi
1015.9
mb
None SE 13
mph
0.00"
KCBF 262215Z AUTO 14011KT 10SM CLR 30/18 A3000 RMK AO2
Creston
VFR
5:15PM 86° 88° 63° 66° 88° 52
%
10
mi
1017.3
mb
None SSE 7
mph
0.00"
KCSQ 262215Z AUTO 15006KT 10SM CLR 30/19 A3004 RMK AO2
Centerville
VFR
4:55PM 84° 86° 63° 63° 85° 48
%
10
mi
1017.9
mb
None SE 3
mph
0.00"
KTVK 262155Z AUTO 13003KT 10SM CLR 29/17 A3006 RMK AO2
Cherokee
VFR
5:15PM 87° 88° 64° 68° 90° 53
%
10
mi
1015.2
mb
None SSW 13
mph
0.00"
KCKP 262215Z AUTO 20011KT 10SM CLR 31/20 A2998 RMK AO2 T03050199
Decorah
VFR
5:15PM 84° 86° 61° 64° 86° 51
%
10
mi
1015.9
mb
None VRB 5
mph
0.00"
KDEH 262215Z AUTO VRB04KT 10SM CLR 29/18 A3000 RMK AO2
Denison
VFR
5:15PM 88° 88° 64° 59° 87° 38
%
10
mi
1016.6
mb
None S 12
mph
0.00"
KDNS 262215Z AUTO 19010KT 10SM CLR 31/15 A3002 RMK AO2
Des Moines
VFR
4:54PM 89° 90° 67° 61° 89° 39
%
10
mi
1016.6
mb
None SE 7
mph
0.00"
KDSM 262154Z 14006KT 10SM CLR 32/16 A3002 RMK AO2 SLP157 T03170161
Dubuque
VFR
4:53PM 87° 87° 57° 65° 89° 48
%
10
mi
1017.9
mb
None WSW 6
mph
0.00"
KDBQ 262153Z 25005KT 10SM CLR 31/18 A3006 RMK AO2 SLP174 T03060183
Estherville
VFR
4:52PM 85° 88° 66° 71° 90° 63
%
10
mi
1014.9
mb
None SSW 18
mph
29
mph
0.00"
KEST 262152Z AUTO 20016G25KT 10SM CLR 29/22 A2997 RMK AO2 SLP140 T02940217
Fairfield
VFR
5:15PM 88° 88° 63° 59° 87° 38
%
10
mi
1017.3
mb
None SSE 6
mph
0.00"
KFFL 262215Z AUTO 15005KT 10SM CLR 31/15 A3004 RMK A01
Fort Dodge
VFR
4:56PM 88° 89° 65° 64° 89° 45
%
10
mi
1015.6
mb
🔻
None SSW 17
mph
22
mph
0.00"
KFOD 262156Z AUTO 20015G19KT 10SM CLR 31/18 A2999 RMK AO2 PRESFR SLP173 T03110178
Fort Madison 5:15PM 88° 88° 64° 66° 90° 49
%
1017.6
mb
Calm 0.00"
KFSW 262215Z AUTO 00000KT 31/19 A3005 RMK AO2 PWINO
Forest City
VFR
5:15PM 84° 88° 72° 66° 87° 55
%
10
mi
1015.2
mb
None SSW 14
mph
17
mph
0.00"
KFXY 262215Z AUTO 20012G15KT 10SM CLR 29/19 A2998 RMK AO2
Grinnell
VFR
5:15PM 89° 89° 66° 64° 90° 44
%
10
mi
1017.6
mb
None S 6
mph
0.00"
KGGI 262215Z AUTO 19005KT 10SM CLR 32/18 A3005 RMK AO2 T03160178
Harlan
VFR
5:15PM 86° 88° 57° 72° 92° 62
%
10
mi
1016.3
mb
None SSE 8
mph
0.00"
KHNR 262215Z AUTO 16007KT 10SM CLR 30/22 A3001 RMK A01
Hampton
VFR
5:15PM 88° 90° 64° 59° 87° 38
%
10
mi
1015.9
mb
None SSW 10
mph
0.00"
KHPT 262215Z AUTO 20009KT 10SM CLR 31/15 A3000 RMK AO2
Independence
VFR
5:15PM -35° 84° -37° -46° -57° 51
%
10
mi
1016.6
mb
None S 8
mph
0.00"
KIIB 262215Z AUTO 19007KT 10SM CLR M37/M43 A3002 RMK AO2 T13711435
Iowa City
VFR
4:52PM 90° 91° 63° 64° 91° 42
%
10
mi
1017.3
mb
None WSW 7
mph
0.00"
KIOW 262152Z AUTO 25006KT 10SM CLR 32/18 A3004 RMK AO2 SLP169 T03220178
Iowa Falls
VFR
5:15PM 89° 90° 65° 63° 90° 42
%
10
mi
1016.6
mb
None SSW 9
mph
0.04"
KIFA 262215Z AUTO 20008KT 10SM CLR 32/17 A3002 RMK AO2 T03170172
Keokuk 5:15PM 86° 86° 75° 64° 87° 49
%
10
mi
1016.9
mb
Calm 0.00"
KEOK 262215Z AUTO 00000KT 10SM 30/18 A3003 RMK AO2 PWINO
Knoxville
VFR
5:15PM 88° 88° 88° 59° 87° 38
%
10
mi
1016.9
mb
None S 7
mph
0.00"
KOXV 262215Z AUTO 18006KT 10SM CLR 31/15 A3003 RMK AO2
Lamoni
VFR
4:53PM 88° 88° 63° 63° 89° 43
%
10
mi
1017.6
mb
None Calm 0.00"
KLWD 262153Z AUTO 00000KT 10SM CLR 31/17 A3005 RMK AO2 SLP165 T03110172
Le Mars
VFR
5:15PM 88° 88° 66° 68° 91° 52
%
10
mi
1014.6
mb
None S 13
mph
21
mph
0.00"
KLRJ 262215Z AUTO 19011G18KT 10SM CLR 31/20 A2996 RMK AO2
Marshalltown
VFR
4:53PM 87° 89° 61° 64° 88° 46
%
10
mi
1016.9
mb
None S 7
mph
0.00"
KMIW 262153Z AUTO 18006KT 10SM CLR 31/18 A3003 RMK AO2 SLP162 T03060178
Mason City
VFR
4:53PM 85° 88° 63° 66° 87° 53
%
10
mi
1016.3
mb
None SSW 12
mph
0.00"
KMCW 262153Z AUTO 20010KT 10SM CLR 29/19 A3001 RMK AO2 SLP148 T02940189
Monticello
VFR
5:15PM 88° 90° 54° 64° 89° 46
%
10
mi
1016.9
mb
None SW 5
mph
0.00"
KMXO 262215Z AUTO 22004KT 10SM CLR 31/18 A3003 RMK AO2
Mount Pleasant
VFR
5:15PM 91° 91° 63° 64° 93° 41
%
10
mi
1016.9
mb
None SSW 5
mph
0.00"
KMPZ 262215Z AUTO 20004KT 10SM CLR 33/18 A3003 RMK AO2
Muscatine
VFR
5:15PM 90° 90° 63° 63° 90° 41
%
10
mi
1016.9
mb
None VRB 6
mph
0.00"
KMUT 262215Z AUTO VRB05KT 10SM CLR 32/17 A3003 RMK AO2
Newton
VFR
5:15PM 86° 88° 64° 68° 89° 55
%
10
mi
1016.6
mb
None Calm 0.00"
KTNU 262215Z AUTO 00000KT 10SM CLR 30/20 A3002 RMK A01
Oelwein
VFR
5:15PM 86° 86° 59° 66° 88° 52
%
10
mi
1016.9
mb
None SSW 10
mph
0.00"
KOLZ 262215Z AUTO 21009KT 10SM CLR 30/19 A3003 RMK A01
Ottumwa
VFR
4:53PM 87° 88° 61° 65° 89° 48
%
10
mi
1017.3
mb
None SSE 6
mph
0.00"
KOTM 262153Z AUTO 15005KT 10SM CLR 31/18 A3004 RMK AO2 SLP166 T03060183
Osceola
VFR
5:15PM 88° 89° 62° 63° 89° 43
%
7
mi
1017.3
mb
None SSE 6
mph
0.00"
KI75 262215Z AUTO 15005KT 7SM CLR 31/17 A3004 RMK AO2 T03110171
Oskaloosa
VFR
5:15PM 89° 91° 65° 65° 91° 44
%
10
mi
1017.3
mb
None SE 3
mph
0.00"
KOOA 262215Z AUTO 14003KT 10SM CLR 32/18 A3004 RMK AO2 T03180181
Pella 5:15PM 92° 93° 65° 56° 91° 29
%
10
mi
1016.9
mb
Calm 0.00"
KPEA 262215Z AUTO 00000KT 10SM 34/13 A3003 RMK AO2 T03350133
Perry
VFR
5:15PM 88° 89° 60° 69° 92° 53
%
10
mi
1016.6
mb
None S 6
mph
0.00"
KPRO 262215Z AUTO 18005KT 10SM CLR 31/21 A3002 RMK AO2 T03110205
Quad Cities
VFR
4:52PM 87° 87° 58° 63° 88° 45
%
10
mi
1017.9
mb
None WSW 9
mph
0.00"
KDVN 262152Z AUTO 25008KT 10SM CLR 31/17 A3006 RMK AO2 SLP170 T03060172
Red Oak
VFR
5:15PM 88° 88° 59° 66° 90° 49
%
10
mi
1016.3
mb
None SE 7
mph
0.00"
KRDK 262215Z AUTO 14006KT 10SM CLR 31/19 A3001 RMK AO2
Sheldon
VFR
5:15PM 84° 86° 66° 72° 90° 66
%
9
mi
1014.2
mb
None S 13
mph
0.00"
KSHL 262215Z AUTO 19011KT 150V210 9SM CLR 29/22 A2995 RMK AO2
Shenandoah
VFR
5:15PM 88° 88° 61° 66° 90° 49
%
10
mi
1015.9
mb
None SE 7
mph
0.00"
KSDA 262215Z AUTO 14006KT 10SM CLR 31/19 A3000 RMK AO2
Sioux City
VFR
4:52PM 88° 90° 64° 65° 90° 46
%
10
mi
1015.2
mb
None SSW 15
mph
0.00"
KSUX 262152Z 20013KT 10SM CLR 31/18 A2998 RMK AO2 SLP143 T03110183
Spencer
VFR
4:53PM 89° 89° 64° 70° 94° 53
%
10
mi
1015.2
mb
None S 14
mph
25
mph
0.00"
KSPW 262153Z AUTO 19012G22KT 10SM CLR 32/21 A2998 RMK AO2 SLP141 T03170211
Sioux County
VFR
5:15PM 84° 86° 64° 75° 92° 74
%
10
mi
1014.2
mb
None S 15
mph
21
mph
0.00"
KSXK 262215Z AUTO 19013G18KT 10SM CLR 29/24 A2995 RMK AO2
Storm Lake
VFR
5:15PM 84° 84° 63° 68° 87° 58
%
10
mi
1015.9
mb
None SSW 10
mph
0.00"
KSLB 262215Z AUTO 20009KT 10SM CLR 29/20 A3000 RMK AO2
Vinton
VFR
5:15PM 91° 93° 58° 64° 93° 41
%
10
mi
1016.9
mb
None SSW 8
mph
0.00"
KVTI 262215Z AUTO 21007KT 10SM CLR 33/18 A3003 RMK AO2 T03280179
Washington
VFR
5:15PM 88° 88° 63° 72° 94° 59
%
10
mi
1016.6
mb
None SSW 3
mph
0.00"
KAWG 262215Z AUTO 20003KT 10SM CLR 31/22 A3002 RMK AO2
Waterloo
VFR
4:54PM 90° 92° 60° 64° 91° 42
%
10
mi
1016.3
mb
None SW 12
mph
0.00"
KALO 262154Z 22010KT 10SM CLR 32/18 A3001 RMK AO2 SLP157 T03220178
Webster City
VFR
4:55PM 88° 88° 61° 68° 91° 52
%
9
mi
1015.6
mb
None S 9
mph
0.00"
KEBS 262155Z AUTO 19008KT 9SM CLR 31/20 A2999 RMK AO2
Click here to show this page without METARs included